createdAt,value
2022-11-02T00:01:39.538Z,98.05
2022-11-02T00:04:06.464Z,97.98
2022-11-02T00:06:33.708Z,98.73
2022-11-02T00:09:00.559Z,95.64
2022-11-02T00:11:27.426Z,96.02
2022-11-02T00:13:54.461Z,99.10
2022-11-02T00:16:22.811Z,100.00
2022-11-02T00:18:53.428Z,100.00
2022-11-02T00:21:21.780Z,99.61
2022-11-02T00:23:49.903Z,100.00
2022-11-02T00:26:17.690Z,98.42
2022-11-02T00:28:45.726Z,98.22
2022-11-02T00:31:12.702Z,98.25
2022-11-02T00:33:39.574Z,100.00
2022-11-02T00:36:06.667Z,100.00
2022-11-02T00:38:33.721Z,100.00
2022-11-02T00:41:00.559Z,100.00
2022-11-02T00:43:27.456Z,100.00
2022-11-02T00:45:54.382Z,97.34
2022-11-02T00:48:22.463Z,98.00
2022-11-02T00:50:49.473Z,96.23
2022-11-02T00:53:18.163Z,94.69
2022-11-02T00:55:51.589Z,93.68
2022-11-02T00:58:18.428Z,93.51
2022-11-02T01:00:45.420Z,95.38
2022-11-02T01:03:12.499Z,97.15
2022-11-02T01:05:39.345Z,98.37
2022-11-02T01:08:06.623Z,97.97
2022-11-02T01:10:33.775Z,100.00
2022-11-02T01:13:01.779Z,99.83
2022-11-02T01:15:28.757Z,100.00
2022-11-02T01:17:55.642Z,100.00
2022-11-02T01:20:22.547Z,98.80
2022-11-02T01:22:49.376Z,99.83
2022-11-02T01:25:16.364Z,100.00
2022-11-02T01:27:43.198Z,100.00
2022-11-02T01:30:10.730Z,100.00
2022-11-02T01:32:37.574Z,100.00
2022-11-02T01:35:04.811Z,100.00
2022-11-02T01:37:31.704Z,100.00
2022-11-02T01:39:58.600Z,100.00
2022-11-02T01:42:28.464Z,100.00
2022-11-02T01:44:56.665Z,99.10
2022-11-02T01:47:26.569Z,100.00
2022-11-02T01:49:58.328Z,100.00
2022-11-02T01:52:31.490Z,100.00
2022-11-02T01:55:07.265Z,100.00
2022-11-02T01:57:36.651Z,100.00
2022-11-02T02:00:08.675Z,100.00
2022-11-02T02:02:49.764Z,100.00
2022-11-02T02:05:18.421Z,100.00
2022-11-02T02:07:46.695Z,100.00
2022-11-02T02:10:14.771Z,100.00
2022-11-02T02:12:43.667Z,100.00
2022-11-02T02:15:15.864Z,100.00
2022-11-02T02:18:00.690Z,100.00
2022-11-02T02:20:48.619Z,100.00
2022-11-02T02:23:44.541Z,100.00
2022-11-02T02:26:17.205Z,100.00
2022-11-02T02:29:14.464Z,100.00
2022-11-02T02:31:53.854Z,100.00
2022-11-02T02:34:31.161Z,100.00
2022-11-02T02:37:10.100Z,100.00
2022-11-02T02:39:44.393Z,100.00
2022-11-02T02:42:31.548Z,100.00
2022-11-02T02:45:01.639Z,100.00
2022-11-02T02:47:33.117Z,100.00
2022-11-02T02:50:11.878Z,100.00
2022-11-02T02:52:40.242Z,100.00
2022-11-02T02:55:14.033Z,100.00
2022-11-02T02:57:41.773Z,100.00
2022-11-02T03:00:17.598Z,100.00
2022-11-02T03:03:01.303Z,100.00
2022-11-02T03:05:36.785Z,100.00
2022-11-02T03:08:13.718Z,100.00
2022-11-02T03:10:53.427Z,100.00
2022-11-02T03:13:35.671Z,100.00
2022-11-02T03:16:19.933Z,100.00
2022-11-02T03:18:54.594Z,100.00
2022-11-02T03:21:40.569Z,100.00
2022-11-02T03:24:33.405Z,100.00
2022-11-02T03:27:18.525Z,100.00
2022-11-02T03:29:52.188Z,100.00
2022-11-02T03:32:31.048Z,100.00
2022-11-02T03:35:07.225Z,100.00
2022-11-02T03:37:46.951Z,100.00
2022-11-02T03:40:20.276Z,100.00
2022-11-02T03:42:50.863Z,100.00
2022-11-02T03:45:24.023Z,100.00
2022-11-02T03:47:55.544Z,100.00
2022-11-02T03:50:23.789Z,100.00
2022-11-02T03:53:03.885Z,100.00
2022-11-02T03:55:36.822Z,100.00
2022-11-02T03:58:04.662Z,100.00
2022-11-02T04:00:36.098Z,100.00
2022-11-02T04:03:08.204Z,100.00
2022-11-02T04:05:40.683Z,100.00
2022-11-02T04:08:22.218Z,100.00
2022-11-02T04:11:12.276Z,100.00
2022-11-02T04:13:59.455Z,100.00
2022-11-02T04:16:29.130Z,100.00
2022-11-02T04:19:16.984Z,100.00
2022-11-02T04:22:04.911Z,100.00
2022-11-02T04:24:52.631Z,100.00
2022-11-02T04:27:21.284Z,100.00
2022-11-02T04:29:50.833Z,100.00
2022-11-02T04:32:36.996Z,100.00
2022-11-02T04:35:06.377Z,100.00
2022-11-02T04:37:57.366Z,100.00
2022-11-02T04:40:24.474Z,100.00
2022-11-02T04:42:53.005Z,100.00
2022-11-02T04:45:20.153Z,100.00
2022-11-02T04:47:48.311Z,100.00
2022-11-02T04:50:15.635Z,100.00
2022-11-02T04:52:43.846Z,100.00
2022-11-02T04:55:11.956Z,100.00
2022-11-02T04:57:44.959Z,100.00
2022-11-02T05:00:13.394Z,100.00
2022-11-02T05:02:40.983Z,100.00
2022-11-02T05:05:08.475Z,100.00
2022-11-02T05:07:35.546Z,100.00
2022-11-02T05:10:02.724Z,100.00
2022-11-02T05:12:30.947Z,100.00
2022-11-02T05:14:59.928Z,100.00
2022-11-02T05:17:27.244Z,100.00
2022-11-02T05:19:54.231Z,100.00
2022-11-02T05:22:21.572Z,100.00
2022-11-02T05:24:48.664Z,100.00
2022-11-02T05:27:16.064Z,100.00
2022-11-02T05:29:45.089Z,100.00
2022-11-02T05:32:12.017Z,100.00
2022-11-02T05:34:39.446Z,100.00
2022-11-02T05:37:08.807Z,100.00
2022-11-02T05:39:37.287Z,100.00
2022-11-02T05:42:04.809Z,100.00
2022-11-02T05:44:32.139Z,100.00
2022-11-02T05:46:59.377Z,100.00
2022-11-02T05:49:26.310Z,100.00
2022-11-02T05:51:53.190Z,100.00
2022-11-02T05:54:20.847Z,100.00
2022-11-02T05:56:47.787Z,100.00
2022-11-02T05:59:14.657Z,100.00
2022-11-02T06:01:41.639Z,100.00
2022-11-02T06:04:08.710Z,100.00
2022-11-02T06:06:35.658Z,100.00
2022-11-02T06:09:06.891Z,100.00
2022-11-02T06:11:34.478Z,96.67
2022-11-02T06:14:02.948Z,91.14
2022-11-02T06:16:30.616Z,83.87
2022-11-02T06:18:57.588Z,80.67
2022-11-02T06:21:24.599Z,75.69
2022-11-02T06:23:51.540Z,71.22
2022-11-02T06:26:18.583Z,66.94
2022-11-02T06:28:45.474Z,63.63
2022-11-02T06:31:13.711Z,60.79
2022-11-02T06:33:40.602Z,54.45
2022-11-02T06:36:07.735Z,52.88
2022-11-02T06:38:34.593Z,49.92
2022-11-02T06:41:05.760Z,48.95
2022-11-02T06:43:34.451Z,46.20
2022-11-02T06:46:01.453Z,45.83
2022-11-02T06:48:34.603Z,44.75
2022-11-02T06:51:03.064Z,45.04
2022-11-02T06:53:30.088Z,43.69
2022-11-02T06:55:58.450Z,41.07
2022-11-02T06:58:26.331Z,41.16
2022-11-02T07:01:05.254Z,40.78
2022-11-02T07:03:32.274Z,40.31
2022-11-02T07:05:59.983Z,38.61
2022-11-02T07:08:27.907Z,40.13
2022-11-02T07:10:54.797Z,39.13
2022-11-02T07:13:21.820Z,40.18
2022-11-02T07:15:52.794Z,39.03
2022-11-02T07:18:19.844Z,38.85
2022-11-02T07:20:46.736Z,41.41
2022-11-02T07:23:13.593Z,42.15
2022-11-02T07:25:41.732Z,44.66
2022-11-02T07:28:08.608Z,45.04
2022-11-02T07:30:35.752Z,44.72
2022-11-02T07:33:03.089Z,43.89
2022-11-02T07:35:30.595Z,42.78
2022-11-02T07:38:03.292Z,40.92
2022-11-02T07:40:31.518Z,39.96
2022-11-02T07:42:59.222Z,37.89
2022-11-02T07:45:52.103Z,37.33
2022-11-02T07:48:18.929Z,37.55
2022-11-02T07:50:45.757Z,36.16
2022-11-02T07:53:12.616Z,35.81
2022-11-02T07:55:39.753Z,35.71
2022-11-02T07:58:10.395Z,36.04
2022-11-02T08:00:39.576Z,35.45
2022-11-02T08:03:08.403Z,34.60
2022-11-02T08:05:37.709Z,35.42
2022-11-02T08:08:10.825Z,34.04
2022-11-02T08:10:40.480Z,35.96
2022-11-02T08:13:09.336Z,35.92
2022-11-02T08:15:36.931Z,36.89
2022-11-02T08:18:05.564Z,37.98
2022-11-02T08:20:35.344Z,39.57
2022-11-02T08:23:02.586Z,39.39
2022-11-02T08:25:29.585Z,39.28
2022-11-02T08:27:59.157Z,38.37
2022-11-02T08:30:27.718Z,38.98
2022-11-02T08:32:57.055Z,36.60
2022-11-02T08:35:24.559Z,37.24
2022-11-02T08:37:57.967Z,34.15
2022-11-02T08:40:25.142Z,33.34
2022-11-02T08:43:06.135Z,31.24
2022-11-02T08:46:00.636Z,31.54
2022-11-02T08:48:21.948Z,30.93
2022-11-02T08:50:49.555Z,32.79
2022-11-02T08:53:16.561Z,32.06
2022-11-02T08:55:43.498Z,34.12
2022-11-02T08:58:10.431Z,35.75
2022-11-02T09:00:37.369Z,36.72
2022-11-02T09:03:13.120Z,37.66
2022-11-02T09:05:42.780Z,36.55
2022-11-02T09:08:18.288Z,37.36
2022-11-02T09:10:47.918Z,37.17
2022-11-02T09:13:18.836Z,36.02
2022-11-02T09:15:49.690Z,35.51
2022-11-02T09:18:16.819Z,34.35
2022-11-02T09:20:43.686Z,34.56
2022-11-02T09:23:11.081Z,33.99
2022-11-02T09:25:38.197Z,32.54
2022-11-02T09:28:05.337Z,31.63
2022-11-02T09:30:32.436Z,30.92
2022-11-02T09:33:02.157Z,29.93
2022-11-02T09:35:34.722Z,30.83
2022-11-02T09:38:01.624Z,28.99
2022-11-02T09:40:35.647Z,27.37
2022-11-02T09:43:08.893Z,25.49
2022-11-02T09:45:42.339Z,26.03
2022-11-02T09:48:27.859Z,26.49
2022-11-02T09:51:19.024Z,26.21
2022-11-02T09:54:17.327Z,25.55
2022-11-02T09:56:46.003Z,24.79
2022-11-02T09:59:26.965Z,23.36
2022-11-02T10:02:28.798Z,22.92
2022-11-02T10:05:07.869Z,23.30
2022-11-02T10:07:56.545Z,24.54
2022-11-02T10:10:43.470Z,24.26
2022-11-02T10:13:25.572Z,24.32
2022-11-02T10:16:01.153Z,25.14
2022-11-02T10:18:30.410Z,23.61
2022-11-02T10:21:06.427Z,22.51
2022-11-02T10:23:38.331Z,22.29
2022-11-02T10:26:05.409Z,21.09
2022-11-02T10:28:39.298Z,21.64
2022-11-02T10:31:27.576Z,22.81
2022-11-02T10:33:58.096Z,23.29
2022-11-02T10:36:31.541Z,23.95
2022-11-02T10:39:13.305Z,24.73
2022-11-02T10:41:49.020Z,24.68
2022-11-02T10:45:01.692Z,21.70
2022-11-02T10:47:32.246Z,22.28
2022-11-02T10:50:12.552Z,21.53
2022-11-02T10:52:43.349Z,21.61
2022-11-02T10:55:21.472Z,22.33
2022-11-02T10:57:49.373Z,22.33
2022-11-02T11:00:27.703Z,21.23
2022-11-02T11:03:14.947Z,21.46
2022-11-02T11:05:56.139Z,20.59
2022-11-02T11:08:32.261Z,20.47
2022-11-02T11:11:15.278Z,19.73
2022-11-02T11:16:37.611Z,18.97
2022-11-02T11:22:03.202Z,21.29
2022-11-02T11:24:32.656Z,20.79
2022-11-02T11:27:11.679Z,21.38
2022-11-02T11:29:41.196Z,20.31
2022-11-02T11:32:22.762Z,18.71
2022-11-02T11:35:03.475Z,18.41
2022-11-02T11:37:31.207Z,17.37
2022-11-02T11:40:16.574Z,17.83
2022-11-02T11:42:43.863Z,19.03
2022-11-02T11:45:27.958Z,18.40
2022-11-02T11:48:02.727Z,18.87
2022-11-02T11:50:30.390Z,19.25
2022-11-02T11:53:15.664Z,19.31
2022-11-02T11:55:51.477Z,19.84
2022-11-02T11:58:22.537Z,18.89
2022-11-02T12:01:09.302Z,19.75
2022-11-02T12:03:53.920Z,18.40
2022-11-02T12:06:20.864Z,18.53
2022-11-02T12:09:16.623Z,18.10
2022-11-02T12:12:11.130Z,18.68
2022-11-02T12:14:43.685Z,19.23
2022-11-02T12:17:34.720Z,18.55
2022-11-02T12:20:17.239Z,19.55
2022-11-02T12:23:22.462Z,19.25
2022-11-02T12:26:18.292Z,18.17
2022-11-02T12:29:24.192Z,16.89
2022-11-02T12:32:19.902Z,18.12
2022-11-02T12:35:27.800Z,17.27
2022-11-02T12:38:39.677Z,19.77
2022-11-02T12:41:13.089Z,20.04
2022-11-02T12:43:44.555Z,19.92
2022-11-02T12:46:17.609Z,19.32
2022-11-02T12:48:53.557Z,20.25
2022-11-02T12:51:43.708Z,20.44
2022-11-02T12:54:14.140Z,20.08
2022-11-02T12:56:53.931Z,19.81
2022-11-02T12:59:28.140Z,20.10
2022-11-02T13:01:58.072Z,20.23
2022-11-02T13:04:35.459Z,19.68
2022-11-02T13:07:13.486Z,19.60
2022-11-02T13:10:02.926Z,19.60
2022-11-02T13:12:34.396Z,20.43
2022-11-02T13:15:02.282Z,20.44
2022-11-02T13:17:44.421Z,20.77
2022-11-02T13:20:16.336Z,20.52
2022-11-02T13:22:47.846Z,20.66
2022-11-02T13:25:20.427Z,20.36
2022-11-02T13:28:05.404Z,20.29
2022-11-02T13:30:33.974Z,21.00
2022-11-02T13:33:17.778Z,20.39
2022-11-02T13:35:46.300Z,19.77
2022-11-02T13:38:13.160Z,20.69
2022-11-02T13:40:45.983Z,20.92
2022-11-02T13:43:24.894Z,21.14
2022-11-02T13:46:11.921Z,21.64
2022-11-02T13:48:51.129Z,22.17
2022-11-02T13:51:28.733Z,22.75
2022-11-02T13:54:03.429Z,22.85
2022-11-02T13:56:30.542Z,22.73
2022-11-02T13:59:04.113Z,22.82
2022-11-02T14:01:33.744Z,23.31
2022-11-02T14:04:20.188Z,24.08
2022-11-02T14:06:49.126Z,24.25
2022-11-02T14:09:35.498Z,23.97
2022-11-02T14:12:13.192Z,24.55
2022-11-02T14:14:40.099Z,24.90
2022-11-02T14:17:12.447Z,25.33
2022-11-02T14:19:52.517Z,25.65
2022-11-02T14:22:19.940Z,25.33
2022-11-02T14:24:48.348Z,25.50
2022-11-02T14:27:19.294Z,25.87
2022-11-02T14:29:46.234Z,26.08
2022-11-02T14:32:20.049Z,25.85
2022-11-02T14:35:14.563Z,26.13
2022-11-02T14:37:53.191Z,26.22
2022-11-02T14:40:44.623Z,26.29
2022-11-02T14:43:43.167Z,26.78
2022-11-02T14:46:31.673Z,42.35
2022-11-02T14:49:01.973Z,51.16
2022-11-02T14:51:32.658Z,55.78
2022-11-02T14:54:06.809Z,63.53
2022-11-02T14:56:56.446Z,68.18
2022-11-02T14:59:29.473Z,70.22
2022-11-02T15:02:09.823Z,72.54
2022-11-02T15:04:36.968Z,72.26
2022-11-02T15:07:06.446Z,71.47
2022-11-02T15:09:54.212Z,72.71
2022-11-02T15:12:31.930Z,75.29
2022-11-02T15:15:02.891Z,75.04
2022-11-02T15:17:29.697Z,75.00
2022-11-02T15:19:56.626Z,72.23
2022-11-02T15:22:38.473Z,73.93
2022-11-02T15:25:26.516Z,75.95
2022-11-02T15:27:57.527Z,70.76
2022-11-02T15:30:28.385Z,71.19
2022-11-02T15:33:05.955Z,69.26
2022-11-02T15:35:37.163Z,69.68
2022-11-02T15:38:27.901Z,64.59
2022-11-02T15:41:06.334Z,62.71
2022-11-02T15:43:43.242Z,60.24
2022-11-02T15:46:29.946Z,58.27
2022-11-02T15:49:21.219Z,60.29
2022-11-02T15:52:02.047Z,60.08
2022-11-02T15:54:45.759Z,58.82
2022-11-02T15:57:18.876Z,56.17
2022-11-02T16:00:09.895Z,54.87
2022-11-02T16:02:54.884Z,52.98
2022-11-02T16:05:28.035Z,50.64
2022-11-02T16:08:10.520Z,44.81
2022-11-02T16:10:43.522Z,43.22
2022-11-02T16:13:10.344Z,42.17
2022-11-02T16:15:38.036Z,42.29
2022-11-02T16:18:05.185Z,41.59
2022-11-02T16:20:39.948Z,41.40
2022-11-02T16:23:13.073Z,41.22
2022-11-02T16:25:47.623Z,41.24
2022-11-02T16:28:25.042Z,41.68
2022-11-02T16:31:13.540Z,41.62
2022-11-02T16:33:42.581Z,41.07
2022-11-02T16:36:12.134Z,41.02
2022-11-02T16:38:39.615Z,41.79
2022-11-02T16:41:09.461Z,43.55
2022-11-02T16:43:45.596Z,43.57
2022-11-02T16:46:18.860Z,42.75
2022-11-02T16:49:07.154Z,42.59
2022-11-02T16:51:34.186Z,42.69
2022-11-02T16:54:18.407Z,43.15
2022-11-02T16:56:50.066Z,43.68
2022-11-02T16:59:17.677Z,43.57
2022-11-02T17:01:44.968Z,44.49
2022-11-02T17:04:20.337Z,45.35
2022-11-02T17:06:49.288Z,45.43
2022-11-02T17:09:25.236Z,45.99
2022-11-02T17:11:53.849Z,46.39
2022-11-02T17:14:22.602Z,46.95
2022-11-02T17:17:06.073Z,47.88
2022-11-02T17:19:41.925Z,47.71
2022-11-02T17:22:21.364Z,46.88
2022-11-02T17:24:48.662Z,47.03
2022-11-02T17:27:26.290Z,47.18
2022-11-02T17:29:57.168Z,46.69
2022-11-02T17:32:24.756Z,52.79
2022-11-02T17:34:53.442Z,50.36
2022-11-02T17:37:28.407Z,49.93
2022-11-02T17:39:55.670Z,49.51
2022-11-02T17:42:41.373Z,50.01
2022-11-02T17:45:28.772Z,50.23
2022-11-02T17:47:57.474Z,50.23
2022-11-02T17:50:26.030Z,51.20
2022-11-02T17:52:53.821Z,51.26
2022-11-02T17:55:27.343Z,51.23
2022-11-02T17:57:55.352Z,53.14
2022-11-02T18:00:23.363Z,54.88
2022-11-02T18:02:55.072Z,55.92
2022-11-02T18:05:29.169Z,55.24
2022-11-02T18:07:58.264Z,54.07
2022-11-02T18:10:29.224Z,54.77
2022-11-02T18:12:56.287Z,52.57
2022-11-02T18:15:26.055Z,51.75
2022-11-02T18:17:53.634Z,53.38
2022-11-02T18:20:20.917Z,54.02
2022-11-02T18:22:47.834Z,53.53
2022-11-02T18:25:17.255Z,53.95
2022-11-02T18:27:45.569Z,54.89
2022-11-02T18:30:14.812Z,54.13
2022-11-02T18:32:43.322Z,52.90
2022-11-02T18:35:13.499Z,51.84
2022-11-02T18:37:40.906Z,51.47
2022-11-02T18:40:10.175Z,52.17
2022-11-02T18:42:41.436Z,52.16
2022-11-02T18:45:10.351Z,51.42
2022-11-02T18:47:38.208Z,51.84
2022-11-02T18:50:07.262Z,52.16
2022-11-02T18:52:34.465Z,52.61
2022-11-02T18:55:05.379Z,52.68
2022-11-02T18:57:33.094Z,53.02
2022-11-02T19:00:02.550Z,52.80
2022-11-02T19:02:29.751Z,52.81
2022-11-02T19:04:56.745Z,55.07
2022-11-02T19:07:42.427Z,55.47
2022-11-02T19:10:10.103Z,56.46
2022-11-02T19:12:37.501Z,56.76
2022-11-02T19:15:05.480Z,55.52
2022-11-02T19:17:32.309Z,56.15
2022-11-02T19:19:59.220Z,56.30
2022-11-02T19:22:26.810Z,55.66
2022-11-02T19:24:53.941Z,55.89
2022-11-02T19:27:23.186Z,55.79
2022-11-02T19:29:50.433Z,57.21
2022-11-02T19:32:18.584Z,56.28
2022-11-02T19:34:45.568Z,55.51
2022-11-02T19:37:13.128Z,56.48
2022-11-02T19:39:40.100Z,56.51
2022-11-02T19:42:07.632Z,56.02
2022-11-02T19:44:41.274Z,56.06
2022-11-02T19:47:10.230Z,55.42
2022-11-02T19:49:37.132Z,57.18
2022-11-02T19:52:04.373Z,56.90
2022-11-02T19:54:31.282Z,57.55
2022-11-02T19:56:58.169Z,57.32
2022-11-02T19:59:25.078Z,58.28
2022-11-02T20:01:52.464Z,58.05
2022-11-02T20:04:19.564Z,57.93
2022-11-02T20:06:46.486Z,58.04
2022-11-02T20:09:16.217Z,59.11
2022-11-02T20:11:45.294Z,60.29
2022-11-02T20:14:14.135Z,61.59
2022-11-02T20:16:41.270Z,59.87
2022-11-02T20:19:09.394Z,58.65
2022-11-02T20:21:41.644Z,59.34
2022-11-02T20:24:11.831Z,59.40
2022-11-02T20:26:41.187Z,59.72
2022-11-02T20:29:10.910Z,58.49
2022-11-02T20:31:40.999Z,58.46
2022-11-02T20:34:08.496Z,60.14
2022-11-02T20:36:35.989Z,59.71
2022-11-02T20:39:05.015Z,59.97
2022-11-02T20:41:32.110Z,59.06
2022-11-02T20:43:59.262Z,59.48
2022-11-02T20:46:47.388Z,59.16
2022-11-02T20:49:48.759Z,60.15
2022-11-02T20:52:03.734Z,59.83
2022-11-02T20:54:30.735Z,59.24
2022-11-02T20:56:57.823Z,61.71
2022-11-02T20:59:25.380Z,62.75
2022-11-02T21:01:52.278Z,61.52
2022-11-02T21:04:21.248Z,61.60
2022-11-02T21:06:49.767Z,62.02
2022-11-02T21:09:17.389Z,63.14
2022-11-02T21:12:02.959Z,63.01
2022-11-02T21:14:29.893Z,63.27
2022-11-02T21:16:56.782Z,64.20
2022-11-02T21:19:23.701Z,64.53
2022-11-02T21:21:55.035Z,64.15
2022-11-02T21:24:23.589Z,64.58
2022-11-02T21:26:50.414Z,65.27
2022-11-02T21:29:17.342Z,65.10
2022-11-02T21:31:44.211Z,64.99
2022-11-02T21:34:11.061Z,64.32
2022-11-02T21:36:37.905Z,63.38
2022-11-02T21:39:04.748Z,64.94
2022-11-02T21:41:36.740Z,64.67
2022-11-02T21:44:03.995Z,64.87
2022-11-02T21:46:30.913Z,65.10
2022-11-02T21:48:57.766Z,64.09
2022-11-02T21:51:24.864Z,63.48
2022-11-02T21:53:52.544Z,61.95
2022-11-02T21:56:22.713Z,61.55
2022-11-02T21:58:49.775Z,62.00
2022-11-02T22:01:36.124Z,69.45
2022-11-02T22:04:04.482Z,66.51
2022-11-02T22:06:32.069Z,67.08
2022-11-02T22:09:00.463Z,65.42
2022-11-02T22:11:28.313Z,65.22
2022-11-02T22:13:57.438Z,65.29
2022-11-02T22:16:29.343Z,64.99
2022-11-02T22:18:59.090Z,63.17
2022-11-02T22:21:28.823Z,65.38
2022-11-02T22:23:56.726Z,64.52
2022-11-02T22:26:26.569Z,64.32
2022-11-02T22:28:57.188Z,64.29
2022-11-02T22:31:27.296Z,63.12
2022-11-02T22:33:56.379Z,63.42
2022-11-02T22:36:26.517Z,62.98
2022-11-02T22:38:55.011Z,64.58
2022-11-02T22:41:24.773Z,63.47
2022-11-02T22:43:54.120Z,64.39
2022-11-02T22:46:22.294Z,65.74
2022-11-02T22:48:52.052Z,67.95
2022-11-02T22:51:21.141Z,66.34
2022-11-02T22:53:48.702Z,66.61
2022-11-02T22:56:17.421Z,69.35
2022-11-02T22:58:46.022Z,68.55
2022-11-02T23:01:16.505Z,69.31
2022-11-02T23:03:43.817Z,69.51
2022-11-02T23:06:11.863Z,68.98
2022-11-02T23:08:41.569Z,69.43
2022-11-02T23:11:22.203Z,67.47
2022-11-02T23:13:51.842Z,67.69
2022-11-02T23:16:23.177Z,66.95
2022-11-02T23:19:16.961Z,68.21
2022-11-02T23:22:11.399Z,66.28
2022-11-02T23:25:02.958Z,66.97
2022-11-02T23:27:31.392Z,66.33
2022-11-02T23:30:16.684Z,65.07
2022-11-02T23:32:43.563Z,64.93
2022-11-02T23:35:29.209Z,64.75
2022-11-02T23:38:03.474Z,63.73
2022-11-02T23:40:31.027Z,62.36
2022-11-02T23:42:58.011Z,64.67
2022-11-02T23:45:25.055Z,64.55
2022-11-02T23:47:57.731Z,63.53
2022-11-02T23:50:45.027Z,61.88
2022-11-02T23:53:31.961Z,62.83
2022-11-02T23:56:18.117Z,63.12
2022-11-02T23:58:45.490Z,61.34
